sensor_id;sensor_type;location;lat;lon;timestamp;pressure;altitude;pressure_sealevel;temperature;humidity
68594;BME280;55563;52.416;13.548;2023-03-02T00:00:32;102187.19;;;-1.60;100.00
68594;BME280;55563;52.416;13.548;2023-03-02T00:02:33;102184.22;;;-1.65;100.00
68594;BME280;55563;52.416;13.548;2023-03-02T00:04:42;102183.78;;;-1.61;100.00
68594;BME280;55563;52.416;13.548;2023-03-02T00:06:45;102186.50;;;-1.62;100.00
68594;BME280;55563;52.416;13.548;2023-03-02T00:08:47;102179.34;;;-1.68;100.00
68594;BME280;55563;52.416;13.548;2023-03-02T00:10:48;102193.44;;;-1.72;100.00
68594;BME280;55563;52.416;13.548;2023-03-02T00:12:49;102188.03;;;-1.69;100.00
68594;BME280;55563;52.416;13.548;2023-03-02T00:14:49;102190.72;;;-1.71;100.00
68594;BME280;55563;52.416;13.548;2023-03-02T00:16:50;102194.22;;;-1.62;100.00
68594;BME280;55563;52.416;13.548;2023-03-02T00:18:52;102189.06;;;-1.62;100.00
68594;BME280;55563;52.416;13.548;2023-03-02T00:20:52;102185.31;;;-1.68;100.00
68594;BME280;55563;52.416;13.548;2023-03-02T00:22:53;102191.56;;;-1.80;100.00
68594;BME280;55563;52.416;13.548;2023-03-02T00:24:53;102199.31;;;-1.90;100.00
68594;BME280;55563;52.416;13.548;2023-03-02T00:26:54;102192.94;;;-1.86;100.00
68594;BME280;55563;52.416;13.548;2023-03-02T00:28:55;102192.94;;;-1.86;100.00
68594;BME280;55563;52.416;13.548;2023-03-02T00:30:55;102188.69;;;-1.77;100.00
68594;BME280;55563;52.416;13.548;2023-03-02T00:32:56;102187.09;;;-1.78;100.00
68594;BME280;55563;52.416;13.548;2023-03-02T00:34:57;102191.97;;;-1.85;100.00
68594;BME280;55563;52.416;13.548;2023-03-02T00:36:58;102189.00;;;-1.80;100.00
68594;BME280;55563;52.416;13.548;2023-03-02T00:38:59;102183.84;;;-1.80;100.00
68594;BME280;55563;52.416;13.548;2023-03-02T00:40:59;102185.59;;;-1.81;100.00
68594;BME280;55563;52.416;13.548;2023-03-02T00:43:00;102183.84;;;-1.80;100.00
68594;BME280;55563;52.416;13.548;2023-03-02T00:45:01;102185.88;;;-1.84;100.00
68594;BME280;55563;52.416;13.548;2023-03-02T00:47:02;102181.97;;;-1.88;100.00
68594;BME280;55563;52.416;13.548;2023-03-02T00:49:03;102177.06;;;-1.81;100.00
68594;BME280;55563;52.416;13.548;2023-03-02T00:51:04;102171.63;;;-1.78;100.00
68594;BME280;55563;52.416;13.548;2023-03-02T00:53:06;102174.75;;;-1.84;100.00
68594;BME280;55563;52.416;13.548;2023-03-02T00:55:08;102176.41;;;-1.83;100.00
68594;BME280;55563;52.416;13.548;2023-03-02T00:57:09;102178.16;;;-1.84;100.00
68594;BME280;55563;52.416;13.548;2023-03-02T00:59:17;102173.25;;;-1.87;100.00
68594;BME280;55563;52.416;13.548;2023-03-02T01:01:39;102182.22;;;-1.91;100.00
68594;BME280;55563;52.416;13.548;2023-03-02T01:03:40;102181.81;;;-1.96;100.00
68594;BME280;55563;52.416;13.548;2023-03-02T01:05:41;102175.06;;;-1.97;100.00
68594;BME280;55563;52.416;13.548;2023-03-02T01:07:42;102168.53;;;-2.01;100.00
68594;BME280;55563;52.416;13.548;2023-03-02T01:09:44;102165.31;;;-2.03;100.00
68594;BME280;55563;52.416;13.548;2023-03-02T01:11:44;102171.53;;;-2.05;100.00
68594;BME280;55563;52.416;13.548;2023-03-02T01:13:46;102162.06;;;-2.14;100.00
68594;BME280;55563;52.416;13.548;2023-03-02T01:15:47;102170.06;;;-2.08;100.00
68594;BME280;55563;52.416;13.548;2023-03-02T01:17:47;102163.16;;;-2.07;100.00
68594;BME280;55563;52.416;13.548;2023-03-02T01:19:48;102173.72;;;-2.10;100.00
68594;BME280;55563;52.416;13.548;2023-03-02T01:21:48;102169.25;;;-2.08;100.00
68594;BME280;55563;52.416;13.548;2023-03-02T01:23:49;102171.84;;;-2.18;100.00
68594;BME280;55563;52.416;13.548;2023-03-02T01:25:51;102173.19;;;-2.24;100.00
68594;BME280;55563;52.416;13.548;2023-03-02T01:27:51;102176.06;;;-2.27;100.00
68594;BME280;55563;52.416;13.548;2023-03-02T01:29:52;102178.63;;;-2.36;100.00
68594;BME280;55563;52.416;13.548;2023-03-02T01:31:53;102168.88;;;-2.33;100.00
68594;BME280;55563;52.416;13.548;2023-03-02T01:33:54;102169.81;;;-2.24;100.00
68594;BME280;55563;52.416;13.548;2023-03-02T01:35:54;102166.28;;;-2.23;100.00
68594;BME280;55563;52.416;13.548;2023-03-02T01:37:55;102167.38;;;-2.26;100.00
68594;BME280;55563;52.416;13.548;2023-03-02T01:39:55;102169.41;;;-2.29;100.00
68594;BME280;55563;52.416;13.548;2023-03-02T01:41:56;102171.31;;;-2.31;100.00
68594;BME280;55563;52.416;13.548;2023-03-02T01:43:57;102169.69;;;-2.32;100.00
68594;BME280;55563;52.416;13.548;2023-03-02T01:46:03;102167.75;;;-2.30;100.00
68594;BME280;55563;52.416;13.548;2023-03-02T01:48:15;102164.00;;;-2.26;100.00
68594;BME280;55563;52.416;13.548;2023-03-02T01:50:20;102163.84;;;-2.34;100.00
68594;BME280;55563;52.416;13.548;2023-03-02T01:52:26;102158.69;;;-2.34;100.00
68594;BME280;55563;52.416;13.548;2023-03-02T01:54:29;102150.72;;;-2.31;100.00
68594;BME280;55563;52.416;13.548;2023-03-02T01:56:36;102156.00;;;-2.33;100.00
68594;BME280;55563;52.416;13.548;2023-03-02T01:58:39;102145.97;;;-2.26;100.00
68594;BME280;55563;52.416;13.548;2023-03-02T02:00:40;102136.50;;;-2.26;100.00
68594;BME280;55563;52.416;13.548;2023-03-02T02:02:41;102142.56;;;-2.27;100.00
68594;BME280;55563;52.416;13.548;2023-03-02T02:04:44;102143.81;;;-2.31;100.00
68594;BME280;55563;52.416;13.548;2023-03-02T02:06:51;102147.03;;;-2.29;100.00
68594;BME280;55563;52.416;13.548;2023-03-02T02:08:55;102141.22;;;-2.31;100.00
68594;BME280;55563;52.416;13.548;2023-03-02T02:10:57;102137.44;;;-2.27;100.00
68594;BME280;55563;52.416;13.548;2023-03-02T02:12:58;102132.94;;;-2.34;100.00
68594;BME280;55563;52.416;13.548;2023-03-02T02:14:59;102128.63;;;-2.34;100.00
68594;BME280;55563;52.416;13.548;2023-03-02T02:17:00;102136.75;;;-2.38;100.00
68594;BME280;55563;52.416;13.548;2023-03-02T02:19:03;102131.72;;;-2.40;100.00
68594;BME280;55563;52.416;13.548;2023-03-02T02:21:07;102130.94;;;-2.40;100.00
68594;BME280;55563;52.416;13.548;2023-03-02T02:23:32;102116.28;;;-2.40;100.00
68594;BME280;55563;52.416;13.548;2023-03-02T02:25:45;102121.84;;;-2.44;100.00
68594;BME280;55563;52.416;13.548;2023-03-02T02:27:47;102128.50;;;-2.42;100.00
68594;BME280;55563;52.416;13.548;2023-03-02T02:29:50;102134.06;;;-2.46;100.00
68594;BME280;55563;52.416;13.548;2023-03-02T02:31:58;102134.88;;;-2.46;100.00
68594;BME280;55563;52.416;13.548;2023-03-02T02:34:09;102128.22;;;-2.58;100.00
68594;BME280;55563;52.416;13.548;2023-03-02T02:36:17;102127.00;;;-2.54;100.00
68594;BME280;55563;52.416;13.548;2023-03-02T02:38:20;102126.06;;;-2.53;100.00
68594;BME280;55563;52.416;13.548;2023-03-02T02:40:44;102135.41;;;-2.42;100.00
68594;BME280;55563;52.416;13.548;2023-03-02T02:42:50;102132.53;;;-2.49;100.00
68594;BME280;55563;52.416;13.548;2023-03-02T02:44:57;102143.81;;;-2.50;100.00
68594;BME280;55563;52.416;13.548;2023-03-02T02:46:58;102137.28;;;-2.54;100.00
68594;BME280;55563;52.416;13.548;2023-03-02T02:49:01;102133.53;;;-2.50;100.00
68594;BME280;55563;52.416;13.548;2023-03-02T02:51:05;102130.25;;;-2.52;100.00
68594;BME280;55563;52.416;13.548;2023-03-02T02:53:13;102128.50;;;-2.51;100.00
68594;BME280;55563;52.416;13.548;2023-03-02T02:55:20;102120.91;;;-2.53;100.00
68594;BME280;55563;52.416;13.548;2023-03-02T02:57:25;102120.66;;;-2.50;100.00
68594;BME280;55563;52.416;13.548;2023-03-02T02:59:33;102124.97;;;-2.50;100.00
68594;BME280;55563;52.416;13.548;2023-03-02T03:01:36;102115.75;;;-2.53;100.00
68594;BME280;55563;52.416;13.548;2023-03-02T03:03:38;102122.53;;;-2.61;100.00
68594;BME280;55563;52.416;13.548;2023-03-02T03:05:42;102124.59;;;-2.65;100.00
68594;BME280;55563;52.416;13.548;2023-03-02T03:07:43;102119.44;;;-2.65;100.00
68594;BME280;55563;52.416;13.548;2023-03-02T03:09:45;102121.47;;;-2.69;100.00
68594;BME280;55563;52.416;13.548;2023-03-02T03:11:50;102120.50;;;-2.68;100.00
68594;BME280;55563;52.416;13.548;2023-03-02T03:13:56;102123.75;;;-2.56;100.00
68594;BME280;55563;52.416;13.548;2023-03-02T03:15:59;102128.63;;;-2.53;100.00
68594;BME280;55563;52.416;13.548;2023-03-02T03:18:01;102126.88;;;-2.52;100.00
68594;BME280;55563;52.416;13.548;2023-03-02T03:20:03;102129.44;;;-2.52;100.00
68594;BME280;55563;52.416;13.548;2023-03-02T03:22:13;102122.94;;;-2.56;100.00
68594;BME280;55563;52.416;13.548;2023-03-02T03:24:14;102126.06;;;-2.63;100.00
68594;BME280;55563;52.416;13.548;2023-03-02T03:26:15;102120.66;;;-2.69;100.00
68594;BME280;55563;52.416;13.548;2023-03-02T03:28:18;102118.34;;;-2.63;100.00
68594;BME280;55563;52.416;13.548;2023-03-02T03:30:19;102120.78;;;-2.61;100.00
68594;BME280;55563;52.416;13.548;2023-03-02T03:32:20;102118.63;;;-2.56;100.00
68594;BME280;55563;52.416;13.548;2023-03-02T03:34:25;102117.53;;;-2.53;100.00
68594;BME280;55563;52.416;13.548;2023-03-02T03:36:28;102110.78;;;-2.54;100.00
68594;BME280;55563;52.416;13.548;2023-03-02T03:38:29;102110.09;;;-2.56;100.00
68594;BME280;55563;52.416;13.548;2023-03-02T03:40:30;102111.31;;;-2.60;100.00
68594;BME280;55563;52.416;13.548;2023-03-02T03:42:35;102104.94;;;-2.66;100.00
68594;BME280;55563;52.416;13.548;2023-03-02T03:44:37;102106.56;;;-2.75;100.00
68594;BME280;55563;52.416;13.548;2023-03-02T03:46:38;102111.97;;;-2.78;100.00
68594;BME280;55563;52.416;13.548;2023-03-02T03:48:39;102115.63;;;-2.80;100.00
68594;BME280;55563;52.416;13.548;2023-03-02T03:50:40;102124.41;;;-2.73;100.00
68594;BME280;55563;52.416;13.548;2023-03-02T03:52:41;102111.56;;;-2.73;100.00
68594;BME280;55563;52.416;13.548;2023-03-02T03:54:50;102115.09;;;-2.74;100.00
68594;BME280;55563;52.416;13.548;2023-03-02T03:56:51;102112.13;;;-2.89;100.00
68594;BME280;55563;52.416;13.548;2023-03-02T03:58:52;102115.91;;;-2.93;100.00
68594;BME280;55563;52.416;13.548;2023-03-02T04:01:05;102117.50;;;-2.82;100.00
68594;BME280;55563;52.416;13.548;2023-03-02T04:03:06;102119.66;;;-2.97;100.00
68594;BME280;55563;52.416;13.548;2023-03-02T04:05:08;102115.75;;;-2.91;100.00
68594;BME280;55563;52.416;13.548;2023-03-02T04:07:10;102108.31;;;-2.85;100.00
68594;BME280;55563;52.416;13.548;2023-03-02T04:09:12;102110.63;;;-2.82;100.00
68594;BME280;55563;52.416;13.548;2023-03-02T04:11:15;102106.97;;;-2.79;100.00
68594;BME280;55563;52.416;13.548;2023-03-02T04:13:15;102107.50;;;-2.76;100.00
68594;BME280;55563;52.416;13.548;2023-03-02T04:15:16;102105.75;;;-2.75;100.00
68594;BME280;55563;52.416;13.548;2023-03-02T04:17:18;102098.56;;;-2.72;100.00
68594;BME280;55563;52.416;13.548;2023-03-02T04:19:22;102107.22;;;-2.82;100.00
68594;BME280;55563;52.416;13.548;2023-03-02T04:21:25;102108.84;;;-2.91;100.00
68594;BME280;55563;52.416;13.548;2023-03-02T04:23:26;102101.66;;;-2.97;100.00
68594;BME280;55563;52.416;13.548;2023-03-02T04:25:28;102101.66;;;-2.97;100.00
68594;BME280;55563;52.416;13.548;2023-03-02T04:27:38;102102.34;;;-2.95;100.00
68594;BME280;55563;52.416;13.548;2023-03-02T04:29:39;102104.66;;;-2.92;100.00
68594;BME280;55563;52.416;13.548;2023-03-02T04:31:41;102103.56;;;-2.89;100.00
68594;BME280;55563;52.416;13.548;2023-03-02T04:33:43;102099.09;;;-2.87;100.00
68594;BME280;55563;52.416;13.548;2023-03-02T04:35:44;102102.63;;;-2.88;100.00
68594;BME280;55563;52.416;13.548;2023-03-02T04:37:45;102100.19;;;-2.90;100.00
68594;BME280;55563;52.416;13.548;2023-03-02T04:39:46;102110.19;;;-2.87;100.00
68594;BME280;55563;52.416;13.548;2023-03-02T04:41:51;102112.13;;;-2.89;100.00
68594;BME280;55563;52.416;13.548;2023-03-02T04:43:52;102116.16;;;-2.96;100.00
68594;BME280;55563;52.416;13.548;2023-03-02T04:45:53;102117.66;;;-3.03;100.00
68594;BME280;55563;52.416;13.548;2023-03-02T04:47:53;102116.13;;;-3.15;100.00
68594;BME280;55563;52.416;13.548;2023-03-02T04:49:54;102126.94;;;-3.21;100.00
68594;BME280;55563;52.416;13.548;2023-03-02T04:51:56;102120.84;;;-3.20;100.00
68594;BME280;55563;52.416;13.548;2023-03-02T04:53:59;102129.50;;;-3.21;100.00
68594;BME280;55563;52.416;13.548;2023-03-02T04:56:00;102127.31;;;-3.26;100.00
68594;BME280;55563;52.416;13.548;2023-03-02T04:58:01;102123.69;;;-3.23;100.00
68594;BME280;55563;52.416;13.548;2023-03-02T05:00:02;102126.69;;;-3.18;100.00
68594;BME280;55563;52.416;13.548;2023-03-02T05:02:04;102122.63;;;-3.11;100.00
68594;BME280;55563;52.416;13.548;2023-03-02T05:04:06;102120.19;;;-3.13;100.00
68594;BME280;55563;52.416;13.548;2023-03-02T05:06:07;102124.13;;;-3.09;100.00
68594;BME280;55563;52.416;13.548;2023-03-02T05:08:08;102115.59;;;-3.09;100.00
68594;BME280;55563;52.416;13.548;2023-03-02T05:10:09;102116.53;;;-3.10;100.00
68594;BME280;55563;52.416;13.548;2023-03-02T05:12:10;102122.19;;;-3.16;100.00
68594;BME280;55563;52.416;13.548;2023-03-02T05:14:11;102122.78;;;-3.13;100.00
68594;BME280;55563;52.416;13.548;2023-03-02T05:16:11;102115.84;;;-3.22;100.00
68594;BME280;55563;52.416;13.548;2023-03-02T05:18:12;102109.50;;;-3.18;100.00
68594;BME280;55563;52.416;13.548;2023-03-02T05:20:13;102114.25;;;-3.13;100.00
68594;BME280;55563;52.416;13.548;2023-03-02T05:22:13;102116.28;;;-3.07;100.00
68594;BME280;55563;52.416;13.548;2023-03-02T05:24:14;102112.91;;;-2.98;100.00
68594;BME280;55563;52.416;13.548;2023-03-02T05:26:15;102112.22;;;-3.00;100.00
68594;BME280;55563;52.416;13.548;2023-03-02T05:28:17;102115.63;;;-2.99;100.00
68594;BME280;55563;52.416;13.548;2023-03-02T05:30:19;102127.25;;;-3.05;100.00
68594;BME280;55563;52.416;13.548;2023-03-02T05:32:20;102121.81;;;-3.12;100.00
68594;BME280;55563;52.416;13.548;2023-03-02T05:34:20;102118.03;;;-3.08;100.00
68594;BME280;55563;52.416;13.548;2023-03-02T05:36:21;102115.88;;;-3.12;100.00
68594;BME280;55563;52.416;13.548;2023-03-02T05:38:22;102119.78;;;-3.18;100.00
68594;BME280;55563;52.416;13.548;2023-03-02T05:40:23;102121.25;;;-3.15;100.00
68594;BME280;55563;52.416;13.548;2023-03-02T05:42:23;102128.31;;;-3.17;100.00
68594;BME280;55563;52.416;13.548;2023-03-02T05:44:24;102129.38;;;-3.20;100.00
68594;BME280;55563;52.416;13.548;2023-03-02T05:46:24;102120.59;;;-3.17;100.00
68594;BME280;55563;52.416;13.548;2023-03-02T05:48:26;102126.81;;;-3.20;100.00
68594;BME280;55563;52.416;13.548;2023-03-02T05:50:27;102128.44;;;-3.19;100.00
68594;BME280;55563;52.416;13.548;2023-03-02T05:52:28;102122.63;;;-3.11;100.00
68594;BME280;55563;52.416;13.548;2023-03-02T05:54:28;102121.81;;;-3.12;100.00
68594;BME280;55563;52.416;13.548;2023-03-02T05:56:29;102127.34;;;-3.16;100.00
68594;BME280;55563;52.416;13.548;2023-03-02T05:58:29;102126.00;;;-3.11;100.00
68594;BME280;55563;52.416;13.548;2023-03-02T06:00:30;102118.03;;;-3.08;100.00
68594;BME280;55563;52.416;13.548;2023-03-02T06:02:31;102123.19;;;-3.08;100.00
68594;BME280;55563;52.416;13.548;2023-03-02T06:04:31;102126.97;;;-3.02;100.00
68594;BME280;55563;52.416;13.548;2023-03-02T06:06:32;102122.09;;;-2.95;100.00
68594;BME280;55563;52.416;13.548;2023-03-02T06:08:32;102124.97;;;-2.79;100.00
68594;BME280;55563;52.416;13.548;2023-03-02T06:10:33;102129.72;;;-2.75;100.00
68594;BME280;55563;52.416;13.548;2023-03-02T06:12:34;102135.28;;;-2.79;100.00
68594;BME280;55563;52.416;13.548;2023-03-02T06:14:35;102127.00;;;-2.83;100.00
68594;BME280;55563;52.416;13.548;2023-03-02T06:16:36;102136.06;;;-2.88;100.00
68594;BME280;55563;52.416;13.548;2023-03-02T06:18:37;102137.84;;;-2.79;100.00
68594;BME280;55563;52.416;13.548;2023-03-02T06:20:39;102143.53;;;-2.56;100.00
68594;BME280;55563;52.416;13.548;2023-03-02T06:22:42;102142.59;;;-2.36;100.00
68594;BME280;55563;52.416;13.548;2023-03-02T06:24:44;102142.31;;;-2.33;100.00
68594;BME280;55563;52.416;13.548;2023-03-02T06:26:45;102135.03;;;-1.91;100.00
68594;BME280;55563;52.416;13.548;2023-03-02T06:28:45;102130.94;;;-1.74;100.00
68594;BME280;55563;52.416;13.548;2023-03-02T06:30:47;102131.84;;;-1.66;100.00
68594;BME280;55563;52.416;13.548;2023-03-02T06:32:48;102125.59;;;-1.09;100.00
68594;BME280;55563;52.416;13.548;2023-03-02T06:34:48;102119.44;;;-0.19;100.00
68594;BME280;55563;52.416;13.548;2023-03-02T06:36:49;102113.66;;;0.47;100.00
68594;BME280;55563;52.416;13.548;2023-03-02T06:38:49;102113.38;;;1.72;100.00
68594;BME280;55563;52.416;13.548;2023-03-02T06:40:50;102110.59;;;1.50;100.00
68594;BME280;55563;52.416;13.548;2023-03-02T06:42:51;102118.13;;;0.78;100.00
68594;BME280;55563;52.416;13.548;2023-03-02T06:44:51;102121.56;;;0.45;100.00
68594;BME280;55563;52.416;13.548;2023-03-02T06:46:54;102115.63;;;0.19;100.00
68594;BME280;55563;52.416;13.548;2023-03-02T06:48:54;102115.28;;;0.14;100.00
68594;BME280;55563;52.416;13.548;2023-03-02T06:50:55;102112.81;;;0.04;100.00
68594;BME280;55563;52.416;13.548;2023-03-02T06:52:56;102121.41;;;-0.13;100.00
68594;BME280;55563;52.416;13.548;2023-03-02T06:54:56;102124.50;;;-0.10;100.00
68594;BME280;55563;52.416;13.548;2023-03-02T06:56:57;102125.31;;;-0.09;100.00
68594;BME280;55563;52.416;13.548;2023-03-02T06:58:57;102129.69;;;0.24;100.00
68594;BME280;55563;52.416;13.548;2023-03-02T07:00:58;102124.72;;;0.31;100.00
68594;BME280;55563;52.416;13.548;2023-03-02T07:02:59;102127.22;;;0.49;100.00
68594;BME280;55563;52.416;13.548;2023-03-02T07:04:59;102133.03;;;0.93;100.00
68594;BME280;55563;52.416;13.548;2023-03-02T07:07:00;102132.22;;;0.08;100.00
68594;BME280;55563;52.416;13.548;2023-03-02T07:09:01;102129.56;;;0.26;100.00
68594;BME280;55563;52.416;13.548;2023-03-02T07:11:07;102131.34;;;-0.01;100.00
68594;BME280;55563;52.416;13.548;2023-03-02T07:13:08;102132.81;;;0.02;100.00
68594;BME280;55563;52.416;13.548;2023-03-02T07:15:09;102126.34;;;-0.46;100.00
68594;BME280;55563;52.416;13.548;2023-03-02T07:17:11;102128.59;;;-0.25;100.00
68594;BME280;55563;52.416;13.548;2023-03-02T07:19:12;102130.53;;;-0.62;100.00
68594;BME280;55563;52.416;13.548;2023-03-02T07:21:13;102138.03;;;-0.33;100.00
68594;BME280;55563;52.416;13.548;2023-03-02T07:23:14;102140.28;;;-0.38;100.00
68594;BME280;55563;52.416;13.548;2023-03-02T07:25:15;102135.91;;;-0.38;100.00
68594;BME280;55563;52.416;13.548;2023-03-02T07:27:15;102136.22;;;-0.41;100.00
68594;BME280;55563;52.416;13.548;2023-03-02T07:29:16;102144.38;;;-0.28;100.00
68594;BME280;55563;52.416;13.548;2023-03-02T07:31:16;102134.69;;;-0.34;100.00
68594;BME280;55563;52.416;13.548;2023-03-02T07:33:18;102145.72;;;-0.41;100.00
68594;BME280;55563;52.416;13.548;2023-03-02T07:35:19;102140.16;;;-0.11;100.00
68594;BME280;55563;52.416;13.548;2023-03-02T07:37:19;102140.47;;;-0.32;100.00
68594;BME280;55563;52.416;13.548;2023-03-02T07:39:20;102141.81;;;-0.28;100.00
68594;BME280;55563;52.416;13.548;2023-03-02T07:41:21;102144.91;;;0.02;100.00
68594;BME280;55563;52.416;13.548;2023-03-02T07:43:22;102143.75;;;-0.30;100.00
68594;BME280;55563;52.416;13.548;2023-03-02T07:45:25;102141.66;;;-0.26;100.00
68594;BME280;55563;52.416;13.548;2023-03-02T07:47:26;102136.34;;;-0.25;100.00
68594;BME280;55563;52.416;13.548;2023-03-02T07:49:26;102139.09;;;-0.62;100.00
68594;BME280;55563;52.416;13.548;2023-03-02T07:51:27;102139.31;;;-0.37;100.00
68594;BME280;55563;52.416;13.548;2023-03-02T07:53:28;102137.03;;;-0.40;100.00
68594;BME280;55563;52.416;13.548;2023-03-02T07:55:28;102137.69;;;-0.56;100.00
68594;BME280;55563;52.416;13.548;2023-03-02T07:57:29;102140.28;;;-0.38;100.00
68594;BME280;55563;52.416;13.548;2023-03-02T07:59:30;102140.81;;;-0.70;100.00
68594;BME280;55563;52.416;13.548;2023-03-02T08:01:30;102138.59;;;-0.83;100.00
68594;BME280;55563;52.416;13.548;2023-03-02T08:03:31;102142.81;;;-0.82;100.00
68594;BME280;55563;52.416;13.548;2023-03-02T08:05:32;102148.69;;;-0.90;100.00
68594;BME280;55563;52.416;13.548;2023-03-02T08:07:33;102147.00;;;-0.63;100.00
68594;BME280;55563;52.416;13.548;2023-03-02T08:09:34;102146.03;;;-0.80;100.00
68594;BME280;55563;52.416;13.548;2023-03-02T08:11:35;102150.69;;;-0.83;100.00
68594;BME280;55563;52.416;13.548;2023-03-02T08:13:35;102148.69;;;-0.90;100.00
68594;BME280;55563;52.416;13.548;2023-03-02T08:15:36;102151.34;;;-0.81;100.00
68594;BME280;55563;52.416;13.548;2023-03-02T08:17:37;102141.63;;;-0.70;100.00
68594;BME280;55563;52.416;13.548;2023-03-02T08:19:37;102144.44;;;-0.63;100.00
68594;BME280;55563;52.416;13.548;2023-03-02T08:21:38;102137.72;;;-1.19;100.00
68594;BME280;55563;52.416;13.548;2023-03-02T08:23:39;102131.94;;;-1.03;100.00
68594;BME280;55563;52.416;13.548;2023-03-02T08:25:41;102132.63;;;-0.83;100.00
68594;BME280;55563;52.416;13.548;2023-03-02T08:27:43;102139.91;;;-0.79;100.00
68594;BME280;55563;52.416;13.548;2023-03-02T08:29:44;102140.16;;;-1.17;100.00
68594;BME280;55563;52.416;13.548;2023-03-02T08:31:44;102146.84;;;-0.97;100.00
68594;BME280;55563;52.416;13.548;2023-03-02T08:33:45;102145.53;;;-0.66;100.00
68594;BME280;55563;52.416;13.548;2023-03-02T08:35:55;102131.88;;;-0.76;100.00
68594;BME280;55563;52.416;13.548;2023-03-02T08:37:56;102137.78;;;-0.83;100.00
68594;BME280;55563;52.416;13.548;2023-03-02T08:39:58;102145.00;;;-0.87;100.00
68594;BME280;55563;52.416;13.548;2023-03-02T08:41:59;102146.66;;;-0.68;100.00
68594;BME280;55563;52.416;13.548;2023-03-02T08:44:00;102138.50;;;-0.56;100.00
68594;BME280;55563;52.416;13.548;2023-03-02T08:46:01;102135.88;;;-0.64;100.00
68594;BME280;55563;52.416;13.548;2023-03-02T08:48:02;102132.56;;;-0.74;100.00
68594;BME280;55563;52.416;13.548;2023-03-02T08:50:04;102139.19;;;-0.54;100.00
68594;BME280;55563;52.416;13.548;2023-03-02T08:52:05;102137.63;;;-0.64;100.00
68594;BME280;55563;52.416;13.548;2023-03-02T08:54:06;102133.66;;;-0.59;100.00
68594;BME280;55563;52.416;13.548;2023-03-02T08:56:29;102130.53;;;-0.45;100.00
68594;BME280;55563;52.416;13.548;2023-03-02T08:58:30;102128.69;;;-0.52;100.00
68594;BME280;55563;52.416;13.548;2023-03-02T09:00:30;102122.81;;;-0.45;100.00
68594;BME280;55563;52.416;13.548;2023-03-02T09:02:31;102126.00;;;-0.68;100.00
68594;BME280;55563;52.416;13.548;2023-03-02T09:04:33;102121.47;;;-0.49;100.00
68594;BME280;55563;52.416;13.548;2023-03-02T09:06:36;102128.25;;;-0.65;100.00
68594;BME280;55563;52.416;13.548;2023-03-02T09:08:38;102118.97;;;-0.76;100.00
68594;BME280;55563;52.416;13.548;2023-03-02T09:10:40;102128.50;;;-0.59;100.00
68594;BME280;55563;52.416;13.548;2023-03-02T09:12:40;102126.34;;;-0.46;100.00
68594;BME280;55563;52.416;13.548;2023-03-02T09:14:41;102123.03;;;-0.73;100.00
68594;BME280;55563;52.416;13.548;2023-03-02T09:16:41;102114.41;;;-0.64;100.00
68594;BME280;55563;52.416;13.548;2023-03-02T09:18:42;102119.78;;;-0.40;100.00
68594;BME280;55563;52.416;13.548;2023-03-02T09:20:43;102114.78;;;-0.16;100.00
68594;BME280;55563;52.416;13.548;2023-03-02T09:22:43;102118.19;;;-0.15;100.00
68594;BME280;55563;52.416;13.548;2023-03-02T09:24:47;102117.97;;;0.04;100.00
68594;BME280;55563;52.416;13.548;2023-03-02T09:26:48;102110.50;;;0.01;100.00
68594;BME280;55563;52.416;13.548;2023-03-02T09:28:49;102116.34;;;0.03;100.00
68594;BME280;55563;52.416;13.548;2023-03-02T09:30:52;102111.88;;;0.13;100.00
68594;BME280;55563;52.416;13.548;2023-03-02T09:32:53;102109.91;;;-0.19;100.00
68594;BME280;55563;52.416;13.548;2023-03-02T09:34:54;102110.47;;;-0.07;100.00
68594;BME280;55563;52.416;13.548;2023-03-02T09:36:55;102104.13;;;-0.13;100.00
68594;BME280;55563;52.416;13.548;2023-03-02T09:38:55;102109.16;;;-0.11;100.00
68594;BME280;55563;52.416;13.548;2023-03-02T09:41:06;102118.44;;;-0.01;100.00
68594;BME280;55563;52.416;13.548;2023-03-02T09:46:12;102107.81;;;0.11;100.00
68594;BME280;55563;52.416;13.548;2023-03-02T09:51:38;102094.22;;;-0.25;100.00
68594;BME280;55563;52.416;13.548;2023-03-02T09:53:33;102096.97;;;0.33;100.00
68594;BME280;55563;52.416;13.548;2023-03-02T09:55:36;102100.63;;;0.22;100.00
68594;BME280;55563;52.416;13.548;2023-03-02T09:57:37;102101.22;;;0.16;100.00
68594;BME280;55563;52.416;13.548;2023-03-02T09:59:44;102102.59;;;0.28;100.00
68594;BME280;55563;52.416;13.548;2023-03-02T10:01:51;102100.91;;;0.53;100.00
68594;BME280;55563;52.416;13.548;2023-03-02T10:03:58;102105.34;;;0.35;100.00
68594;BME280;55563;52.416;13.548;2023-03-02T10:06:01;102109.09;;;0.40;100.00
68594;BME280;55563;52.416;13.548;2023-03-02T10:08:02;102113.03;;;0.53;100.00
68594;BME280;55563;52.416;13.548;2023-03-02T10:10:25;102115.13;;;-0.11;100.00
68594;BME280;55563;52.416;13.548;2023-03-02T10:17:59;102114.50;;;0.63;100.00
68594;BME280;55563;52.416;13.548;2023-03-02T10:20:07;102113.22;;;0.67;100.00
68594;BME280;55563;52.416;13.548;2023-03-02T10:22:18;102105.72;;;0.48;100.00
68594;BME280;55563;52.416;13.548;2023-03-02T10:24:46;102107.66;;;0.46;100.00
68594;BME280;55563;52.416;13.548;2023-03-02T10:26:53;102109.56;;;0.36;100.00
68594;BME280;55563;52.416;13.548;2023-03-02T10:29:00;102105.91;;;0.55;100.00
68594;BME280;55563;52.416;13.548;2023-03-02T10:31:16;102110.22;;;0.96;100.00
68594;BME280;55563;52.416;13.548;2023-03-02T10:33:18;102103.25;;;0.80;100.00
68594;BME280;55563;52.416;13.548;2023-03-02T10:35:23;102107.09;;;0.68;100.00